createdAt,value
2016-04-22T00:00:16.301Z,0
2016-04-22T00:01:29.760Z,0
2016-04-22T00:02:15.853Z,0
2016-04-22T00:03:30.421Z,0
2016-04-22T00:04:15.884Z,0
2016-04-22T00:05:29.748Z,0
2016-04-22T00:06:15.233Z,0
2016-04-22T00:07:16.064Z,0
2016-04-22T00:08:16.067Z,0
2016-04-22T00:09:15.881Z,0
2016-04-22T00:10:15.712Z,0
2016-04-22T00:11:15.653Z,0
2016-04-22T00:12:15.889Z,0
2016-04-22T00:13:15.674Z,0
2016-04-22T00:14:29.773Z,0
2016-04-22T00:16:15.682Z,0
2016-04-22T00:17:15.888Z,0
2016-04-22T00:18:15.890Z,0
2016-04-22T00:19:16.284Z,0
2016-04-22T00:20:15.677Z,0
2016-04-22T00:21:15.899Z,0
2016-04-22T00:22:15.916Z,0
2016-04-22T00:23:15.872Z,0
2016-04-22T00:24:16.344Z,0
2016-04-22T00:25:15.894Z,0
2016-04-22T00:26:16.068Z,0
2016-04-22T00:27:15.696Z,0
2016-04-22T00:28:15.652Z,0
2016-04-22T00:29:29.751Z,0
2016-04-22T00:30:15.891Z,0
2016-04-22T00:31:15.660Z,0
2016-04-22T00:32:15.163Z,0
2016-04-22T00:33:15.868Z,0
2016-04-22T00:34:15.699Z,0
2016-04-22T00:35:15.686Z,0
2016-04-22T00:36:15.877Z,0
2016-04-22T00:37:15.646Z,0
2016-04-22T00:38:29.964Z,0
2016-04-22T00:39:15.183Z,0
2016-04-22T00:40:15.669Z,0
2016-04-22T00:41:15.891Z,0
2016-04-22T00:42:15.941Z,0
2016-04-22T00:43:15.662Z,0
2016-04-22T00:44:30.574Z,0
2016-04-22T00:45:15.855Z,0
2016-04-22T00:46:16.310Z,0
2016-04-22T00:47:15.704Z,0
2016-04-22T00:48:15.659Z,0
2016-04-22T00:49:15.896Z,0
2016-04-22T00:50:15.695Z,0
2016-04-22T00:51:16.277Z,0
2016-04-22T00:52:15.936Z,0
2016-04-22T00:53:15.689Z,0
2016-04-22T00:54:16.145Z,0
2016-04-22T00:55:15.710Z,0
2016-04-22T00:56:15.744Z,0
2016-04-22T00:57:15.667Z,0
2016-04-22T00:58:15.717Z,0
2016-04-22T00:59:29.958Z,0
2016-04-22T01:00:15.645Z,0
2016-04-22T01:01:15.632Z,0
2016-04-22T01:02:15.697Z,0
2016-04-22T01:04:15.671Z,0
2016-04-22T01:05:15.705Z,0
2016-04-22T01:06:15.724Z,0
2016-04-22T01:07:15.679Z,0
2016-04-22T01:08:16.088Z,0
2016-04-22T01:09:15.841Z,0
2016-04-22T01:10:16.109Z,0
2016-04-22T01:11:30.349Z,0
2016-04-22T01:12:15.880Z,0
2016-04-22T01:13:29.760Z,0
2016-04-22T01:14:16.088Z,0
2016-04-22T01:15:15.685Z,0
2016-04-22T01:16:29.784Z,0
2016-04-22T01:17:15.846Z,0
2016-04-22T01:18:15.662Z,0
2016-04-22T01:19:15.509Z,0
2016-04-22T01:20:15.886Z,0
2016-04-22T01:21:29.751Z,0
2016-04-22T01:22:15.673Z,0
2016-04-22T01:23:15.926Z,0
2016-04-22T01:24:15.850Z,0
2016-04-22T01:25:15.665Z,0
2016-04-22T01:26:29.264Z,0
2016-04-22T01:27:15.920Z,0
2016-04-22T01:28:15.392Z,0
2016-04-22T01:29:30.163Z,0
2016-04-22T01:30:15.616Z,0
2016-04-22T01:31:29.762Z,0
2016-04-22T01:32:15.169Z,0
2016-04-22T01:33:16.280Z,0
2016-04-22T01:34:29.958Z,0
2016-04-22T01:35:16.239Z,0
2016-04-22T01:36:15.680Z,0
2016-04-22T01:37:15.447Z,0
2016-04-22T01:38:15.716Z,0
2016-04-22T01:39:15.688Z,0
2016-04-22T01:40:15.674Z,0
2016-04-22T01:41:30.555Z,0
2016-04-22T01:42:16.039Z,0
2016-04-22T01:43:15.167Z,0
2016-04-22T01:44:15.669Z,0
2016-04-22T01:46:15.690Z,0
2016-04-22T01:47:15.131Z,0
2016-04-22T01:48:15.634Z,0
2016-04-22T01:49:15.668Z,0
2016-04-22T01:50:15.826Z,0
2016-04-22T01:51:15.813Z,0
2016-04-22T01:52:15.645Z,0
2016-04-22T01:53:15.850Z,0
2016-04-22T01:54:15.837Z,0
2016-04-22T01:55:15.481Z,0
2016-04-22T01:56:15.609Z,0
2016-04-22T01:57:15.845Z,0
2016-04-22T01:58:15.848Z,0
2016-04-22T01:59:16.459Z,0
2016-04-22T02:00:15.853Z,0
2016-04-22T02:01:15.653Z,0
2016-04-22T02:02:15.843Z,0
2016-04-22T02:03:15.470Z,0
2016-04-22T02:04:29.914Z,0
2016-04-22T02:05:15.180Z,0
2016-04-22T02:06:14.869Z,0
2016-04-22T02:07:29.734Z,0
2016-04-22T02:08:15.656Z,0
2016-04-22T02:09:15.144Z,0
2016-04-22T02:10:15.583Z,0
2016-04-22T02:11:15.836Z,0
2016-04-22T02:12:15.652Z,0
2016-04-22T02:13:15.794Z,0
2016-04-22T02:14:15.610Z,0
2016-04-22T02:15:15.597Z,0
2016-04-22T02:16:15.380Z,0
2016-04-22T02:17:15.602Z,0
2016-04-22T02:18:15.590Z,0
2016-04-22T02:19:15.592Z,0
2016-04-22T02:20:15.610Z,0
2016-04-22T02:21:15.598Z,0
2016-04-22T02:22:15.585Z,0
2016-04-22T02:23:15.587Z,0
2016-04-22T02:24:15.606Z,0
2016-04-22T02:25:15.592Z,0
2016-04-22T02:26:15.595Z,0
2016-04-22T02:27:15.629Z,0
2016-04-22T02:28:15.101Z,0
2016-04-22T02:29:15.587Z,0
2016-04-22T02:30:15.575Z,0
2016-04-22T02:31:15.625Z,0
2016-04-22T02:32:15.767Z,0
2016-04-22T02:33:16.051Z,0
2016-04-22T02:34:16.069Z,0
2016-04-22T02:35:15.431Z,0
2016-04-22T02:36:15.091Z,0
2016-04-22T02:37:15.594Z,0
2016-04-22T02:38:29.864Z,0
2016-04-22T02:39:15.583Z,0
2016-04-22T02:40:15.820Z,0
2016-04-22T02:41:14.807Z,0
2016-04-22T02:42:29.672Z,0
2016-04-22T02:43:15.563Z,0
2016-04-22T02:44:29.677Z,0
2016-04-22T02:45:15.974Z,0
2016-04-22T02:46:15.586Z,0
2016-04-22T02:47:14.823Z,0
2016-04-22T02:48:15.779Z,0
2016-04-22T02:49:15.563Z,0
2016-04-22T02:50:15.550Z,0
2016-04-22T02:51:15.568Z,0
2016-04-22T02:52:15.587Z,0
2016-04-22T02:53:15.777Z,0
2016-04-22T02:54:15.592Z,0
2016-04-22T02:55:15.548Z,0
2016-04-22T02:56:15.612Z,0
2016-04-22T02:57:15.554Z,0
2016-04-22T02:58:15.557Z,0
2016-04-22T02:59:15.542Z,0
2016-04-22T03:00:15.546Z,0
2016-04-22T03:01:15.798Z,0
2016-04-22T03:02:15.536Z,0
2016-04-22T03:03:16.179Z,0
2016-04-22T03:04:15.509Z,0
2016-04-22T03:05:15.950Z,0
2016-04-22T03:06:15.530Z,0
2016-04-22T03:07:15.517Z,0
2016-04-22T03:08:15.583Z,0
2016-04-22T03:09:15.538Z,0
2016-04-22T03:10:15.541Z,0
2016-04-22T03:11:15.560Z,0
2016-04-22T03:12:15.125Z,0
2016-04-22T03:13:15.550Z,0
2016-04-22T03:14:15.552Z,0
2016-04-22T03:15:15.930Z,0
2016-04-22T03:16:14.792Z,0
2016-04-22T03:17:17.607Z,0
2016-04-22T03:18:15.532Z,0
2016-04-22T03:19:15.519Z,0
2016-04-22T03:20:15.771Z,0
2016-04-22T03:21:15.571Z,0
2016-04-22T03:22:29.607Z,0
2016-04-22T03:23:29.688Z,0
2016-04-22T03:24:15.063Z,0
2016-04-22T03:25:15.504Z,0
2016-04-22T03:26:15.757Z,0
2016-04-22T03:27:15.494Z,0
2016-04-22T03:28:15.949Z,0
2016-04-22T03:29:15.577Z,0
2016-04-22T03:30:15.908Z,0
2016-04-22T03:31:15.536Z,0
2016-04-22T03:32:29.619Z,0
2016-04-22T03:33:16.166Z,0
2016-04-22T03:35:15.717Z,0
2016-04-22T03:36:15.689Z,0
2016-04-22T03:37:15.739Z,0
2016-04-22T03:38:15.038Z,0
2016-04-22T03:39:15.745Z,0
2016-04-22T03:40:15.497Z,0
2016-04-22T03:41:15.531Z,0
2016-04-22T03:43:15.052Z,0
2016-04-22T03:44:15.524Z,0
2016-04-22T03:45:16.120Z,0
2016-04-22T03:46:15.701Z,0
2016-04-22T03:47:15.485Z,5
2016-04-22T03:48:15.519Z,5
2016-04-22T03:49:15.334Z,5
2016-04-22T03:50:15.493Z,5
2016-04-22T03:51:15.479Z,5
2016-04-22T03:53:30.176Z,5
2016-04-22T03:54:15.504Z,10
2016-04-22T03:55:15.866Z,10
2016-04-22T03:56:15.697Z,10
2016-04-22T03:58:15.468Z,10
2016-04-22T03:59:15.517Z,10
2016-04-22T04:00:16.129Z,15
2016-04-22T04:01:15.476Z,15
2016-04-22T04:02:15.478Z,15
2016-04-22T04:03:15.512Z,15
2016-04-22T04:04:15.311Z,20
2016-04-22T04:05:15.517Z,20
2016-04-22T04:06:15.473Z,20
2016-04-22T04:07:15.460Z,25
2016-04-22T04:08:30.231Z,25
2016-04-22T04:09:15.434Z,25
2016-04-22T04:10:15.406Z,30
2016-04-22T04:11:15.472Z,30
2016-04-22T04:12:15.146Z,30
2016-04-22T04:13:15.430Z,30
2016-04-22T04:14:15.479Z,35
2016-04-22T04:15:14.794Z,35
2016-04-22T04:16:16.094Z,35
2016-04-22T04:17:29.583Z,40
2016-04-22T04:18:15.646Z,40
2016-04-22T04:19:15.680Z,40
2016-04-22T04:20:15.479Z,45
2016-04-22T04:21:15.482Z,45
2016-04-22T04:22:15.891Z,50
2016-04-22T04:23:15.455Z,50
2016-04-22T04:24:15.746Z,50
2016-04-22T04:25:29.690Z,55
2016-04-22T04:26:15.580Z,55
2016-04-22T04:27:15.153Z,55
2016-04-22T04:28:15.169Z,60
2016-04-22T04:29:15.858Z,60
2016-04-22T04:30:15.657Z,60
2016-04-22T04:31:15.860Z,60
2016-04-22T04:32:15.924Z,65
2016-04-22T04:33:15.703Z,65
2016-04-22T04:34:15.727Z,65
2016-04-22T04:35:15.703Z,70
2016-04-22T04:36:30.032Z,70
2016-04-22T04:37:15.922Z,70
2016-04-22T04:38:15.927Z,70
2016-04-22T04:39:15.714Z,75
2016-04-22T04:40:15.937Z,75
2016-04-22T04:41:44.103Z,75
2016-04-22T04:42:15.743Z,75
2016-04-22T04:43:16.154Z,80
2016-04-22T04:45:15.956Z,80
2016-04-22T04:46:15.944Z,80
2016-04-22T04:47:15.681Z,80
2016-04-22T04:48:15.700Z,85
2016-04-22T04:49:15.907Z,85
2016-04-22T04:50:15.676Z,90
2016-04-22T04:51:29.807Z,90
2016-04-22T04:52:15.900Z,90
2016-04-22T04:53:15.950Z,95
2016-04-22T04:54:15.719Z,95
2016-04-22T04:55:16.174Z,95
2016-04-22T04:56:16.130Z,95
2016-04-22T04:57:15.741Z,95
2016-04-22T04:58:15.729Z,100
2016-04-22T04:59:15.919Z,100
2016-04-22T05:00:15.734Z,100
2016-04-22T05:01:15.487Z,100
2016-04-22T05:02:15.709Z,100
2016-04-22T05:03:16.226Z,100
2016-04-22T05:04:15.729Z,100
2016-04-22T05:05:15.998Z,105
2016-04-22T05:06:15.720Z,105
2016-04-22T05:07:16.129Z,105
2016-04-22T05:08:15.709Z,105
2016-04-22T05:09:15.540Z,105
2016-04-22T05:11:16.140Z,105
2016-04-22T05:12:16.127Z,110
2016-04-22T05:13:15.723Z,110
2016-04-22T05:14:29.823Z,110
2016-04-22T05:15:15.760Z,110
2016-04-22T05:16:16.982Z,110
2016-04-22T05:17:15.437Z,115
2016-04-22T05:18:30.052Z,125
2016-04-22T05:19:16.146Z,120
2016-04-22T05:20:16.305Z,130
2016-04-22T05:21:29.529Z,135
2016-04-22T05:22:16.185Z,125
2016-04-22T05:23:15.704Z,115
2016-04-22T05:24:16.144Z,115
2016-04-22T05:25:15.787Z,115
2016-04-22T05:26:15.992Z,115
2016-04-22T05:27:15.698Z,115
2016-04-22T05:28:16.342Z,120
2016-04-22T05:29:15.892Z,120
2016-04-22T05:30:15.956Z,120
2016-04-22T05:31:15.741Z,130
2016-04-22T05:34:18.155Z,140
2016-04-22T05:35:16.517Z,145
2016-04-22T05:36:16.941Z,140
2016-04-22T05:37:16.507Z,140
2016-04-22T05:38:16.119Z,140
2016-04-22T05:39:30.078Z,135
2016-04-22T05:40:19.297Z,130
2016-04-22T05:41:16.439Z,135
2016-04-22T05:42:16.208Z,125
2016-04-22T05:43:16.054Z,130
2016-04-22T05:44:18.932Z,135
2016-04-22T05:45:15.951Z,135
2016-04-22T05:46:16.078Z,135
2016-04-22T05:47:16.034Z,135
2016-04-22T05:48:30.429Z,140
2016-04-22T05:49:16.164Z,140
2016-04-22T05:50:16.276Z,140
2016-04-22T05:52:15.953Z,135
2016-04-22T05:53:15.706Z,140
2016-04-22T05:54:15.724Z,140
2016-04-22T05:55:22.586Z,140
2016-04-22T05:56:16.214Z,140
2016-04-22T05:57:16.733Z,140
2016-04-22T05:58:18.766Z,145
2016-04-22T05:59:15.160Z,145
2016-04-22T06:00:15.975Z,145
2016-04-22T06:01:16.228Z,150
2016-04-22T06:02:16.511Z,150
2016-04-22T06:03:15.858Z,150
2016-04-22T06:04:15.189Z,150
2016-04-22T06:05:16.520Z,155
2016-04-22T06:06:16.069Z,155
2016-04-22T06:07:15.994Z,155
2016-04-22T06:08:30.234Z,155
2016-04-22T06:09:16.203Z,155
2016-04-22T06:10:16.063Z,155
2016-04-22T06:11:16.129Z,155
2016-04-22T06:12:16.148Z,155
2016-04-22T06:13:16.229Z,150
2016-04-22T06:14:15.449Z,155
2016-04-22T06:15:15.735Z,150
2016-04-22T06:16:16.189Z,155
2016-04-22T06:17:17.020Z,150
2016-04-22T06:18:17.210Z,150
2016-04-22T06:19:15.620Z,150
2016-04-22T06:20:15.606Z,150
2016-04-22T06:21:15.406Z,150
2016-04-22T06:22:16.190Z,155
2016-04-22T06:23:15.911Z,155
2016-04-22T06:24:15.680Z,150
2016-04-22T06:25:15.323Z,155
2016-04-22T06:26:30.095Z,160
2016-04-22T06:27:16.532Z,155
2016-04-22T06:28:16.175Z,160
2016-04-22T06:29:16.100Z,160
2016-04-22T06:30:16.211Z,160
2016-04-22T06:31:15.996Z,160
2016-04-22T06:32:16.061Z,165
2016-04-22T06:33:30.442Z,170
2016-04-22T06:34:16.161Z,165
2016-04-22T06:35:15.960Z,170
2016-04-22T06:36:15.259Z,175
2016-04-22T06:37:16.012Z,165
2016-04-22T06:38:19.186Z,160
2016-04-22T06:39:19.017Z,160
2016-04-22T06:40:18.582Z,160
2016-04-22T06:41:16.413Z,170
2016-04-22T06:42:30.246Z,170
2016-04-22T06:43:16.309Z,160
2016-04-22T06:44:16.312Z,160
2016-04-22T06:45:16.237Z,155
2016-04-22T06:46:16.583Z,155
2016-04-22T06:47:31.510Z,160
2016-04-22T06:48:16.307Z,165
2016-04-22T06:49:16.404Z,160
2016-04-22T06:50:16.438Z,160
2016-04-22T06:51:30.190Z,160
2016-04-22T06:52:16.443Z,160
2016-04-22T06:53:16.726Z,160
2016-04-22T06:54:30.340Z,160
2016-04-22T06:55:15.809Z,155
2016-04-22T06:56:15.312Z,155
2016-04-22T06:57:16.019Z,165
2016-04-22T06:58:17.475Z,195
2016-04-22T06:59:30.290Z,155
2016-04-22T07:00:16.981Z,160
2016-04-22T07:01:30.248Z,165
2016-04-22T07:02:16.235Z,160
2016-04-22T07:03:16.160Z,170
2016-04-22T07:04:16.241Z,170
2016-04-22T07:05:16.853Z,165
2016-04-22T07:06:15.839Z,175
2016-04-22T07:07:15.967Z,235
2016-04-22T07:08:16.205Z,335
2016-04-22T07:09:16.207Z,350
2016-04-22T07:10:16.257Z,400
2016-04-22T07:11:16.072Z,380
2016-04-22T07:12:15.778Z,465
2016-04-22T07:13:15.281Z,745
2016-04-22T07:14:16.049Z,1340
2016-04-22T07:15:17.161Z,955
2016-04-22T07:16:16.195Z,530
2016-04-22T07:17:15.823Z,210
2016-04-22T07:18:15.826Z,170
2016-04-22T07:19:15.812Z,170
2016-04-22T07:20:18.721Z,175
2016-04-22T07:21:29.927Z,185
2016-04-22T07:22:15.789Z,465
2016-04-22T07:23:16.245Z,905
2016-04-22T07:24:16.217Z,785
2016-04-22T07:25:18.828Z,685
2016-04-22T07:26:16.003Z,645
2016-04-22T07:27:16.443Z,1085
2016-04-22T07:28:16.258Z,950
2016-04-22T07:30:17.061Z,175
2016-04-22T07:31:15.845Z,180
2016-04-22T07:32:29.942Z,175
2016-04-22T07:33:15.866Z,175
2016-04-22T07:34:15.883Z,175
2016-04-22T07:35:17.778Z,175
2016-04-22T07:36:15.874Z,175
2016-04-22T07:37:16.095Z,180
2016-04-22T07:38:16.051Z,175
2016-04-22T07:39:15.897Z,180
2016-04-22T07:40:31.197Z,190
2016-04-22T07:41:16.091Z,215
2016-04-22T07:42:15.874Z,260
2016-04-22T07:43:30.189Z,290
2016-04-22T07:44:16.364Z,240
2016-04-22T07:45:18.491Z,215
2016-04-22T07:46:15.885Z,220
2016-04-22T07:47:15.904Z,195
2016-04-22T07:48:16.499Z,190
2016-04-22T07:49:16.112Z,185
2016-04-22T07:50:17.646Z,195
2016-04-22T07:51:16.179Z,200
2016-04-22T07:52:16.104Z,215
2016-04-22T07:53:15.951Z,240
2016-04-22T07:54:16.375Z,315
2016-04-22T07:55:17.471Z,350
2016-04-22T07:56:15.943Z,250
2016-04-22T07:57:15.946Z,215
2016-04-22T07:59:15.874Z,220
2016-04-22T08:00:19.454Z,210
2016-04-22T08:01:30.504Z,215
2016-04-22T08:03:15.836Z,240
2016-04-22T08:04:16.621Z,270
2016-04-22T08:05:17.718Z,330
2016-04-22T08:06:30.469Z,355
2016-04-22T08:07:30.473Z,330
2016-04-22T08:08:15.694Z,300
2016-04-22T08:09:16.181Z,295
2016-04-22T08:10:16.778Z,325
2016-04-22T08:11:30.093Z,285
2016-04-22T08:13:16.036Z,245
2016-04-22T08:14:16.241Z,265
2016-04-22T08:15:17.182Z,245
2016-04-22T08:16:16.435Z,240
2016-04-22T08:17:16.327Z,225
2016-04-22T08:18:16.002Z,240
2016-04-22T08:19:15.974Z,235
2016-04-22T08:20:15.508Z,240
2016-04-22T08:21:16.448Z,240
2016-04-22T08:22:16.185Z,265
2016-04-22T08:23:16.235Z,325
2016-04-22T08:24:16.237Z,365
2016-04-22T08:25:30.349Z,400
2016-04-22T08:26:16.102Z,470
2016-04-22T08:27:16.323Z,500
2016-04-22T08:28:16.060Z,445
2016-04-22T08:29:16.501Z,400
2016-04-22T08:30:16.081Z,345
2016-04-22T08:31:16.053Z,320
2016-04-22T08:32:29.634Z,315
2016-04-22T08:34:16.123Z,475
2016-04-22T08:35:16.283Z,430
2016-04-22T08:36:16.081Z,380
2016-04-22T08:37:29.695Z,380
2016-04-22T08:38:16.337Z,385
2016-04-22T08:39:16.418Z,340
2016-04-22T08:40:30.014Z,355
2016-04-22T08:41:16.314Z,390
2016-04-22T08:42:30.192Z,495
2016-04-22T08:43:15.820Z,550
2016-04-22T08:44:30.619Z,475
2016-04-22T08:45:16.356Z,430
2016-04-22T08:46:16.094Z,400
2016-04-22T08:47:16.361Z,415
2016-04-22T08:48:16.333Z,440
2016-04-22T08:49:16.383Z,420
2016-04-22T08:50:18.526Z,355
2016-04-22T08:51:16.138Z,330
2016-04-22T08:52:30.437Z,435
2016-04-22T08:53:16.160Z,515
2016-04-22T08:54:16.365Z,510
2016-04-22T08:55:18.071Z,450
2016-04-22T08:56:16.168Z,485
2016-04-22T08:57:16.154Z,520
2016-04-22T08:58:16.797Z,470
2016-04-22T08:59:30.284Z,480
2016-04-22T09:00:16.913Z,465
2016-04-22T09:01:16.165Z,475
2016-04-22T09:02:16.184Z,475
2016-04-22T09:03:16.311Z,505
2016-04-22T09:04:16.407Z,480
2016-04-22T09:05:19.410Z,415
2016-04-22T09:06:30.319Z,400
2016-04-22T09:07:15.728Z,400
2016-04-22T09:08:16.434Z,440
2016-04-22T09:09:16.218Z,445
2016-04-22T09:10:17.455Z,365
2016-04-22T09:11:15.770Z,375
2016-04-22T09:12:16.272Z,430
2016-04-22T09:13:16.588Z,355
2016-04-22T09:14:29.887Z,355
2016-04-22T09:15:18.452Z,405
2016-04-22T09:16:16.362Z,445
2016-04-22T09:17:16.317Z,470
2016-04-22T09:18:19.227Z,440
2016-04-22T09:19:16.369Z,470
2016-04-22T09:20:18.544Z,420
2016-04-22T09:21:16.313Z,350
2016-04-22T09:22:16.534Z,390
2016-04-22T09:23:16.559Z,375
2016-04-22T09:24:16.578Z,385
2016-04-22T09:25:18.173Z,440
2016-04-22T09:26:16.739Z,425
2016-04-22T09:27:16.336Z,410
2016-04-22T09:28:16.416Z,390
2016-04-22T09:29:17.654Z,345
2016-04-22T09:30:18.359Z,310
2016-04-22T09:31:16.283Z,280
2016-04-22T09:32:16.850Z,275
2016-04-22T09:33:16.399Z,320
2016-04-22T09:34:16.104Z,385
2016-04-22T09:35:17.811Z,345
2016-04-22T09:36:16.408Z,350
2016-04-22T09:37:17.269Z,345
2016-04-22T09:38:16.398Z,305
2016-04-22T09:39:16.666Z,310
2016-04-22T09:40:17.559Z,320
2016-04-22T09:41:16.546Z,355
2016-04-22T09:43:16.505Z,345
2016-04-22T09:44:16.444Z,305
2016-04-22T09:45:16.463Z,255
2016-04-22T09:46:16.497Z,225
2016-04-22T09:47:16.922Z,220
2016-04-22T09:48:17.347Z,225
2016-04-22T09:49:16.489Z,235
2016-04-22T09:50:16.492Z,280
2016-04-22T09:51:30.588Z,360
2016-04-22T09:52:16.747Z,425
2016-04-22T09:53:16.562Z,455
2016-04-22T09:54:16.518Z,385
2016-04-22T09:55:16.724Z,305
2016-04-22T09:56:17.118Z,240
2016-04-22T09:57:16.402Z,215
2016-04-22T09:58:16.545Z,205
2016-04-22T09:59:16.563Z,210
2016-04-22T10:00:30.675Z,235
2016-04-22T10:01:16.975Z,250
2016-04-22T10:02:17.024Z,250
2016-04-22T10:03:16.589Z,210
2016-04-22T10:04:16.780Z,220
2016-04-22T10:05:18.313Z,235
2016-04-22T10:06:30.692Z,270
2016-04-22T10:07:16.647Z,300
2016-04-22T10:13:36.555Z,230
2016-04-22T10:13:48.743Z,225
2016-04-22T10:14:49.621Z,210
2016-04-22T10:15:49.311Z,210
2016-04-22T10:16:49.283Z,230
2016-04-22T10:17:49.332Z,250
2016-04-22T10:19:49.338Z,300
2016-04-22T10:20:49.341Z,285
2016-04-22T10:21:49.327Z,265
2016-04-22T10:22:49.377Z,260
2016-04-22T10:23:49.051Z,235
2016-04-22T10:24:49.742Z,210
2016-04-22T10:25:49.542Z,195
2016-04-22T10:26:49.340Z,200
2016-04-22T10:27:49.562Z,205
2016-04-22T10:28:48.612Z,210
2016-04-22T10:29:49.412Z,200
2016-04-22T10:30:49.414Z,195
2016-04-22T10:31:49.401Z,195
2016-04-22T10:32:49.404Z,205
2016-04-22T10:34:02.954Z,210
2016-04-22T10:34:49.660Z,205
2016-04-22T10:35:49.865Z,200
2016-04-22T10:36:49.461Z,195
2016-04-22T10:37:49.480Z,195
2016-04-22T10:38:49.467Z,195
2016-04-22T10:39:49.439Z,195
2016-04-22T10:41:03.769Z,195
2016-04-22T10:41:49.210Z,195
2016-04-22T10:42:49.509Z,190
2016-04-22T10:43:49.731Z,195
2016-04-22T10:44:49.546Z,185
2016-04-22T10:45:49.486Z,180
2016-04-22T10:46:49.769Z,180
2016-04-22T10:47:49.522Z,180
2016-04-22T10:48:49.682Z,180
2016-04-22T10:49:49.496Z,180
2016-04-22T10:50:49.765Z,185
2016-04-22T10:51:49.564Z,185
2016-04-22T10:53:03.832Z,185
2016-04-22T10:53:49.507Z,190
2016-04-22T10:54:49.963Z,190
2016-04-22T10:55:49.778Z,190
2016-04-22T10:56:49.265Z,190
2016-04-22T10:57:49.815Z,195
2016-04-22T10:59:49.664Z,195
2016-04-22T11:00:49.573Z,185
2016-04-22T11:02:03.904Z,180
2016-04-22T11:02:49.578Z,180
2016-04-22T11:03:49.597Z,180
2016-04-22T11:04:49.614Z,180
2016-04-22T11:05:49.587Z,180
2016-04-22T11:06:49.606Z,185
2016-04-22T11:08:03.936Z,185
2016-04-22T11:08:49.610Z,185
2016-04-22T11:09:49.628Z,180
2016-04-22T11:10:49.631Z,180
2016-04-22T11:11:49.680Z,185
2016-04-22T11:12:49.636Z,185
2016-04-22T11:13:49.905Z,190
2016-04-22T11:14:49.892Z,185
2016-04-22T11:15:49.926Z,185
2016-04-22T11:16:49.694Z,185
2016-04-22T11:17:49.681Z,185
2016-04-22T11:18:49.699Z,190
2016-04-22T11:19:50.124Z,190
2016-04-22T11:20:49.955Z,190
2016-04-22T11:21:48.982Z,190
2016-04-22T11:22:49.389Z,185
2016-04-22T11:23:49.704Z,185
2016-04-22T11:24:50.129Z,190
2016-04-22T11:25:49.741Z,190
2016-04-22T11:26:49.759Z,190
2016-04-22T11:27:49.950Z,190
2016-04-22T11:28:50.000Z,190
2016-04-22T11:29:50.283Z,190
2016-04-22T11:31:04.051Z,185
2016-04-22T11:31:49.945Z,185
2016-04-22T11:32:50.026Z,185
2016-04-22T11:33:49.778Z,185
2016-04-22T11:34:49.796Z,185
2016-04-22T11:35:50.159Z,185
2016-04-22T11:36:49.349Z,185
2016-04-22T11:37:49.991Z,185
2016-04-22T11:38:49.666Z,185
2016-04-22T11:39:49.997Z,185
2016-04-22T11:40:49.875Z,185
2016-04-22T11:41:50.034Z,185
2016-04-22T11:42:49.849Z,185
2016-04-22T11:44:04.336Z,185
2016-04-22T11:44:49.839Z,185
2016-04-22T11:45:49.857Z,185
2016-04-22T11:46:49.875Z,185
2016-04-22T11:47:49.862Z,185
2016-04-22T11:48:49.381Z,185
2016-04-22T11:49:49.868Z,185
2016-04-22T11:50:50.104Z,185
2016-04-22T11:51:50.076Z,185
2016-04-22T11:52:49.939Z,185
2016-04-22T11:53:50.129Z,180
2016-04-22T11:55:04.225Z,180
2016-04-22T11:55:49.931Z,180
2016-04-22T11:56:50.105Z,185
2016-04-22T11:57:50.156Z,185
2016-04-22T11:58:49.970Z,185
2016-04-22T11:59:50.364Z,185
2016-04-22T12:00:50.179Z,185
2016-04-22T12:01:49.963Z,185
2016-04-22T12:02:50.200Z,185
2016-04-22T12:03:50.219Z,185
2016-04-22T12:04:50.017Z,185
2016-04-22T12:05:50.067Z,185
2016-04-22T12:06:50.664Z,185
2016-04-22T12:08:18.400Z,185
2016-04-22T12:08:50.044Z,185
2016-04-22T12:09:50.031Z,185
2016-04-22T12:10:50.065Z,185
2016-04-22T12:11:50.083Z,185
2016-04-22T12:12:50.085Z,190
2016-04-22T12:13:50.120Z,190
2016-04-22T12:14:50.091Z,190
2016-04-22T12:15:50.063Z,190
2016-04-22T12:16:50.222Z,185
2016-04-22T12:17:50.100Z,185
2016-04-22T12:18:50.227Z,185
2016-04-22T12:19:51.528Z,185
2016-04-22T12:20:50.359Z,185
2016-04-22T12:21:50.440Z,185
2016-04-22T12:22:49.647Z,185
2016-04-22T12:23:49.555Z,185
2016-04-22T12:24:50.136Z,185
2016-04-22T12:25:50.138Z,185
2016-04-22T12:26:50.141Z,185
2016-04-22T12:27:50.191Z,190
2016-04-22T12:28:50.147Z,185
2016-04-22T12:29:50.400Z,185
2016-04-22T12:30:50.621Z,185
2016-04-22T12:31:50.624Z,190
2016-04-22T12:34:04.347Z,190
2016-04-22T12:34:50.241Z,190
2016-04-22T12:35:50.463Z,190
2016-04-22T12:36:50.450Z,190
2016-04-22T12:38:04.780Z,190
2016-04-22T12:38:50.486Z,190
2016-04-22T12:39:50.333Z,190
2016-04-22T12:40:50.304Z,190
2016-04-22T12:41:50.291Z,190
2016-04-22T12:43:04.371Z,185
2016-04-22T12:43:50.156Z,185
2016-04-22T12:44:50.534Z,185
2016-04-22T12:45:50.317Z,185
2016-04-22T12:46:50.523Z,185
2016-04-22T12:47:50.556Z,185
2016-04-22T12:49:50.422Z,190
2016-04-22T12:50:50.393Z,190
2016-04-22T12:51:50.364Z,190
2016-04-22T12:52:50.212Z,195
2016-04-22T12:53:50.651Z,195
2016-04-22T12:55:04.732Z,195
2016-04-22T12:55:50.172Z,195
2016-04-22T12:56:50.628Z,195
2016-04-22T12:57:50.600Z,195
2016-04-22T12:58:50.462Z,195
2016-04-22T12:59:50.497Z,195
2016-04-22T13:00:49.967Z,195
2016-04-22T13:01:50.657Z,195
2016-04-22T13:03:04.566Z,195
2016-04-22T13:03:50.819Z,195
2016-04-22T13:04:50.811Z,195
2016-04-22T13:05:50.751Z,195
2016-04-22T13:06:50.551Z,195
2016-04-22T13:08:04.616Z,195
2016-04-22T13:08:50.556Z,190
2016-04-22T13:09:50.996Z,195
2016-04-22T13:11:04.687Z,195
2016-04-22T13:11:50.565Z,195
2016-04-22T13:13:04.660Z,200
2016-04-22T13:13:50.585Z,200
2016-04-22T13:14:50.776Z,200
2016-04-22T13:16:04.716Z,200
2016-04-22T13:17:04.723Z,205
2016-04-22T13:17:50.616Z,205
2016-04-22T13:18:51.057Z,205
2016-04-22T13:19:50.841Z,205
2016-04-22T13:20:50.624Z,205
2016-04-22T13:21:50.663Z,205
2016-04-22T13:22:50.666Z,205
2016-04-22T13:23:51.060Z,205
2016-04-22T13:24:50.905Z,205
2016-04-22T13:25:50.705Z,205
2016-04-22T13:26:50.708Z,205
2016-04-22T13:27:50.961Z,205
2016-04-22T13:28:50.796Z,205
2016-04-22T13:30:05.404Z,205
2016-04-22T13:31:05.139Z,205
2016-04-22T13:31:51.185Z,205
2016-04-22T13:32:50.948Z,205
2016-04-22T13:34:05.310Z,205
2016-04-22T13:34:51.062Z,205
2016-04-22T13:35:51.050Z,205
2016-04-22T13:36:51.302Z,205
2016-04-22T13:37:51.086Z,205
2016-04-22T13:38:51.350Z,205
2016-04-22T13:40:05.450Z,205
2016-04-22T13:40:51.382Z,205
2016-04-22T13:41:51.172Z,205
2016-04-22T13:42:51.351Z,205
2016-04-22T13:43:51.202Z,205
2016-04-22T13:44:50.942Z,205
2016-04-22T13:45:52.289Z,205
2016-04-22T13:46:51.247Z,205
2016-04-22T13:47:51.893Z,205
2016-04-22T13:48:51.287Z,205
2016-04-22T13:49:51.712Z,205
2016-04-22T13:50:50.559Z,205
2016-04-22T13:51:51.470Z,205
2016-04-22T13:53:05.379Z,205
2016-04-22T13:53:51.320Z,205
2016-04-22T13:54:51.526Z,205
2016-04-22T13:56:05.842Z,205
2016-04-22T13:56:51.375Z,205
2016-04-22T13:57:51.364Z,210
2016-04-22T13:58:50.662Z,210
2016-04-22T13:59:51.573Z,210
2016-04-22T14:00:51.559Z,210
2016-04-22T14:01:51.593Z,210
2016-04-22T14:03:05.909Z,210
2016-04-22T14:03:51.848Z,210
2016-04-22T14:04:51.429Z,210
2016-04-22T14:05:51.681Z,210
2016-04-22T14:06:52.044Z,210
2016-04-22T14:07:51.687Z,210
2016-04-22T14:08:51.847Z,210
2016-04-22T14:09:51.662Z,210
2016-04-22T14:10:51.477Z,210
2016-04-22T14:11:50.870Z,210
2016-04-22T14:12:51.530Z,210
2016-04-22T14:13:51.735Z,210
2016-04-22T14:15:05.331Z,210
2016-04-22T14:15:51.521Z,205
2016-04-22T14:16:51.540Z,205
2016-04-22T14:17:51.793Z,205
2016-04-22T14:18:51.811Z,205
2016-04-22T14:19:51.564Z,205
2016-04-22T14:20:51.596Z,200
2016-04-22T14:21:51.288Z,200
2016-04-22T14:23:05.681Z,200
2016-04-22T14:23:51.840Z,200
2016-04-22T14:24:51.843Z,205
2016-04-22T14:25:52.022Z,205
2016-04-22T14:26:51.696Z,205
2016-04-22T14:27:51.871Z,205
2016-04-22T14:28:51.671Z,205
2016-04-22T14:29:51.892Z,205